createdAt,value
2019-05-17T00:02:51.019Z,91.00
2019-05-17T00:07:50.914Z,90.80
2019-05-17T00:12:50.558Z,90.80
2019-05-17T00:17:50.795Z,90.30
2019-05-17T00:22:50.422Z,90.10
2019-05-17T00:27:50.026Z,89.30
2019-05-17T00:33:08.890Z,89.40
2019-05-17T00:38:08.537Z,88.90
2019-05-17T00:43:08.174Z,89.40
2019-05-17T00:48:07.880Z,88.90
2019-05-17T00:53:26.848Z,89.30
2019-05-17T00:58:26.721Z,89.10
2019-05-17T01:03:26.990Z,88.80
2019-05-17T01:08:26.902Z,89.50
2019-05-17T01:13:26.831Z,89.60
2019-05-17T01:18:27.055Z,89.70
2019-05-17T01:23:27.140Z,89.40
2019-05-17T01:28:27.111Z,89.20
2019-05-17T01:33:27.266Z,88.90
2019-05-17T01:38:27.117Z,89.10
2019-05-17T01:43:27.406Z,89.70
2019-05-17T01:48:39.818Z,89.70
2019-05-17T01:53:39.473Z,90.10
2019-05-17T01:58:39.154Z,90.10
2019-05-17T02:03:39.123Z,90.10
2019-05-17T02:08:39.162Z,90.00
2019-05-17T02:13:39.102Z,89.40
2019-05-17T02:18:38.730Z,89.10
2019-05-17T02:23:38.383Z,90.20
2019-05-17T02:28:38.107Z,90.00
2019-05-17T02:33:38.300Z,89.90
2019-05-17T02:38:37.973Z,89.50
2019-05-17T02:43:37.708Z,89.60
2019-05-17T02:48:37.350Z,90.10
2019-05-17T02:53:56.215Z,89.70
2019-05-17T02:58:56.192Z,89.00
2019-05-17T03:03:55.851Z,88.80
2019-05-17T03:08:55.485Z,89.00
2019-05-17T03:13:55.218Z,89.40
2019-05-17T03:18:54.931Z,89.30
2019-05-17T03:23:55.536Z,89.00
2019-05-17T03:28:55.431Z,89.50
2019-05-17T03:34:16.631Z,89.60
2019-05-17T03:39:15.997Z,89.50
2019-05-17T03:44:15.890Z,89.30
2019-05-17T03:49:15.616Z,89.40
2019-05-17T03:54:15.676Z,89.70
2019-05-17T03:59:15.751Z,89.80
2019-05-17T04:04:15.404Z,89.60
2019-05-17T04:09:15.145Z,89.70
2019-05-17T04:14:14.884Z,89.20
2019-05-17T04:19:14.620Z,89.20
2019-05-17T04:24:14.617Z,90.00
2019-05-17T04:29:14.260Z,89.40
2019-05-17T04:34:13.925Z,88.80
2019-05-17T04:39:13.808Z,88.00
2019-05-17T04:44:13.520Z,88.00
2019-05-17T04:49:13.980Z,87.60
2019-05-17T04:54:14.132Z,88.40
2019-05-17T04:59:14.234Z,87.50
2019-05-17T05:04:15.545Z,87.70
2019-05-17T05:09:15.433Z,87.30
2019-05-17T05:14:15.078Z,87.00
2019-05-17T05:19:15.329Z,87.60
2019-05-17T05:24:14.977Z,87.70
2019-05-17T05:29:14.630Z,87.10
2019-05-17T05:34:14.275Z,87.70
2019-05-17T05:39:14.995Z,88.50
2019-05-17T05:44:15.739Z,88.90
2019-05-17T05:49:15.407Z,88.20
2019-05-17T05:54:15.060Z,88.40
2019-05-17T05:59:14.720Z,88.60
2019-05-17T06:04:14.806Z,88.00
2019-05-17T06:09:14.480Z,88.60
2019-05-17T06:14:14.138Z,88.20
2019-05-17T06:19:13.874Z,88.00
2019-05-17T06:24:13.503Z,88.70
2019-05-17T06:29:14.247Z,88.00
2019-05-17T06:34:13.891Z,88.00
2019-05-17T06:39:13.880Z,89.30
2019-05-17T06:44:13.522Z,89.90
2019-05-17T06:49:14.252Z,89.80
2019-05-17T06:54:13.923Z,89.20
2019-05-17T06:59:13.583Z,87.80
2019-05-17T07:04:13.246Z,87.00
2019-05-17T07:09:12.887Z,87.00
2019-05-17T07:14:12.535Z,87.70
2019-05-17T07:19:12.195Z,88.20
2019-05-17T07:24:11.860Z,88.60
2019-05-17T07:29:11.540Z,87.70
2019-05-17T07:34:12.165Z,89.60
2019-05-17T07:39:12.188Z,88.50
2019-05-17T07:44:12.224Z,90.00
2019-05-17T07:49:13.198Z,90.60
2019-05-17T07:54:12.919Z,88.50
2019-05-17T07:59:12.642Z,87.60
2019-05-17T08:04:12.363Z,86.80
2019-05-17T08:09:13.909Z,86.50
2019-05-17T08:14:26.774Z,86.40
2019-05-17T08:19:15.198Z,85.80
2019-05-17T08:24:14.910Z,85.10
2019-05-17T08:29:14.535Z,84.50
2019-05-17T08:34:15.448Z,85.40
2019-05-17T08:39:15.471Z,83.50
2019-05-17T08:44:15.192Z,83.00
2019-05-17T08:49:14.853Z,82.00
2019-05-17T08:54:14.760Z,80.70
2019-05-17T08:59:14.402Z,81.40
2019-05-17T09:04:14.035Z,79.30
2019-05-17T09:09:13.829Z,81.40
2019-05-17T09:14:13.532Z,81.00
2019-05-17T09:19:13.179Z,77.60
2019-05-17T09:24:12.921Z,75.00
2019-05-17T09:29:13.712Z,74.70
2019-05-17T09:34:13.649Z,71.10
2019-05-17T09:39:13.783Z,72.50
2019-05-17T09:44:16.306Z,69.80
2019-05-17T09:49:15.083Z,70.10
2019-05-17T09:54:14.751Z,71.10
2019-05-17T09:59:14.398Z,73.40
2019-05-17T10:04:14.114Z,72.40
2019-05-17T10:09:14.067Z,69.60
2019-05-17T10:14:24.609Z,69.30
2019-05-17T10:19:15.332Z,65.70
2019-05-17T10:24:14.955Z,67.30
2019-05-17T10:29:14.590Z,68.90
2019-05-17T10:34:14.459Z,67.70
2019-05-17T10:39:14.118Z,67.60
2019-05-17T10:44:13.847Z,64.90
2019-05-17T10:49:14.323Z,64.90
2019-05-17T10:54:14.363Z,60.90
2019-05-17T10:59:14.075Z,64.00
2019-05-17T11:04:13.932Z,63.90
2019-05-17T11:09:13.969Z,64.40
2019-05-17T11:14:14.091Z,63.20
2019-05-17T11:19:13.756Z,63.90
2019-05-17T11:24:13.411Z,61.50
2019-05-17T11:29:13.234Z,62.50
2019-05-17T11:34:12.916Z,60.80
2019-05-17T11:39:12.623Z,61.90
2019-05-17T11:44:12.282Z,62.30
2019-05-17T11:49:12.051Z,61.90
2019-05-17T11:54:11.835Z,61.90
2019-05-17T11:59:11.484Z,62.30
2019-05-17T12:04:11.149Z,60.30
2019-05-17T12:09:10.780Z,60.90
2019-05-17T12:14:10.824Z,59.70
2019-05-17T12:19:10.528Z,60.80
2019-05-17T12:24:10.260Z,60.20
2019-05-17T12:29:09.931Z,60.90
2019-05-17T12:34:09.651Z,60.20
2019-05-17T12:39:09.361Z,60.60
2019-05-17T12:44:09.034Z,60.50
2019-05-17T12:49:09.056Z,58.30
2019-05-17T12:54:08.731Z,58.90
2019-05-17T12:59:08.425Z,59.40
2019-05-17T13:04:08.441Z,59.80
2019-05-17T13:09:08.751Z,58.90
2019-05-17T13:14:08.530Z,58.60
2019-05-17T13:19:08.193Z,59.20
2019-05-17T13:24:08.107Z,58.60
2019-05-17T13:29:10.272Z,59.00
2019-05-17T13:34:10.048Z,57.20
2019-05-17T13:39:09.689Z,58.00
2019-05-17T13:44:09.432Z,58.30
2019-05-17T13:49:09.147Z,58.50
2019-05-17T13:54:08.884Z,58.00
2019-05-17T13:59:08.527Z,58.20
2019-05-17T14:04:08.279Z,58.10
2019-05-17T14:09:08.155Z,58.10
2019-05-17T14:14:07.883Z,56.70
2019-05-17T14:19:07.612Z,57.70
2019-05-17T14:24:07.420Z,57.80
2019-05-17T14:29:07.343Z,58.20
2019-05-17T14:34:07.173Z,58.10
2019-05-17T14:39:07.521Z,57.80
2019-05-17T14:44:07.346Z,57.80
2019-05-17T14:49:07.221Z,57.70
2019-05-17T14:54:06.931Z,57.40
2019-05-17T14:59:08.338Z,57.90
2019-05-17T15:04:08.222Z,57.70
2019-05-17T15:09:11.366Z,58.00
2019-05-17T15:14:09.694Z,57.60
2019-05-17T15:19:09.423Z,57.70
2019-05-17T15:24:09.154Z,57.50
2019-05-17T15:29:09.081Z,57.70
2019-05-17T15:34:08.818Z,57.40
2019-05-17T15:39:08.611Z,57.70
2019-05-17T15:44:08.427Z,57.60
2019-05-17T15:49:08.135Z,57.50
2019-05-17T15:54:07.928Z,57.00
2019-05-17T15:59:07.648Z,57.10
2019-05-17T16:04:07.364Z,57.20
2019-05-17T16:09:07.448Z,56.80
2019-05-17T16:14:07.120Z,56.00
2019-05-17T16:19:06.816Z,56.00
2019-05-17T16:24:06.720Z,57.00
2019-05-17T16:29:06.810Z,57.20
2019-05-17T16:34:06.450Z,57.20
2019-05-17T16:39:08.485Z,57.50
2019-05-17T16:44:08.140Z,57.60
2019-05-17T16:49:19.684Z,57.60
2019-05-17T16:54:19.477Z,56.80
2019-05-17T16:59:19.211Z,57.50
2019-05-17T17:04:19.170Z,57.50
2019-05-17T17:09:18.982Z,58.00
2019-05-17T17:14:18.621Z,57.30
2019-05-17T17:19:18.488Z,57.20
2019-05-17T17:24:18.215Z,56.60
2019-05-17T17:29:18.138Z,57.30
2019-05-17T17:34:19.204Z,57.80
2019-05-17T17:39:18.897Z,58.00
2019-05-17T17:44:18.662Z,58.40
2019-05-17T17:49:18.575Z,58.20
2019-05-17T17:54:18.829Z,58.20
2019-05-17T17:59:18.667Z,58.20
2019-05-17T18:04:18.539Z,58.10
2019-05-17T18:09:18.206Z,58.20
2019-05-17T18:14:17.999Z,58.30
2019-05-17T18:19:17.803Z,58.20
2019-05-17T18:24:17.615Z,58.30
2019-05-17T18:29:17.544Z,58.60
2019-05-17T18:34:17.515Z,58.30
2019-05-17T18:39:17.169Z,58.40
2019-05-17T18:44:27.211Z,58.50
2019-05-17T18:49:18.787Z,58.60
2019-05-17T18:54:19.188Z,58.80
2019-05-17T18:59:19.082Z,58.80
2019-05-17T19:04:18.998Z,59.10
2019-05-17T19:09:18.921Z,59.00
2019-05-17T19:14:18.564Z,59.20
2019-05-17T19:19:18.231Z,59.20
2019-05-17T19:24:17.854Z,59.30
2019-05-17T19:29:17.500Z,59.50
2019-05-17T19:34:17.447Z,59.50
2019-05-17T19:39:17.199Z,59.60
2019-05-17T19:44:16.926Z,59.60
2019-05-17T19:49:16.881Z,59.80
2019-05-17T19:54:16.541Z,60.10
2019-05-17T19:59:16.244Z,60.40
2019-05-17T20:04:15.960Z,60.60
2019-05-17T20:09:15.755Z,61.00
2019-05-17T20:14:15.419Z,61.10
2019-05-17T20:19:15.055Z,61.50
2019-05-17T20:24:14.751Z,61.90
2019-05-17T20:29:14.381Z,62.10
2019-05-17T20:34:15.101Z,62.40
2019-05-17T20:39:14.816Z,62.80
2019-05-17T20:44:14.459Z,62.90
2019-05-17T20:49:14.127Z,63.60
2019-05-17T20:54:13.772Z,64.30
2019-05-17T20:59:13.422Z,64.80
2019-05-17T21:04:13.095Z,66.90
2019-05-17T21:09:12.743Z,67.10
2019-05-17T21:14:12.385Z,67.50
2019-05-17T21:19:12.027Z,68.10
2019-05-17T21:24:11.664Z,70.40
2019-05-17T21:29:11.314Z,70.50
2019-05-17T21:34:11.044Z,72.00
2019-05-17T21:39:10.729Z,72.70
2019-05-17T21:44:10.707Z,72.90
2019-05-17T21:49:10.375Z,73.00
2019-05-17T21:54:10.119Z,73.30
2019-05-17T21:59:12.598Z,73.20
2019-05-17T22:04:11.202Z,73.20
2019-05-17T22:09:11.029Z,73.60
2019-05-17T22:14:11.123Z,73.90
2019-05-17T22:19:10.791Z,74.30
2019-05-17T22:24:10.776Z,74.80
2019-05-17T22:29:10.452Z,75.10
2019-05-17T22:34:10.087Z,75.80
2019-05-17T22:39:09.796Z,75.70
2019-05-17T22:44:09.851Z,76.40
2019-05-17T22:49:09.831Z,76.50
2019-05-17T22:54:09.491Z,76.70
2019-05-17T22:59:09.259Z,77.90
2019-05-17T23:04:08.895Z,77.30
2019-05-17T23:09:08.700Z,77.40
2019-05-17T23:14:09.500Z,77.40
2019-05-17T23:19:10.518Z,77.40
2019-05-17T23:24:10.235Z,77.30
2019-05-17T23:29:10.000Z,77.70
2019-05-17T23:34:09.641Z,77.60
2019-05-17T23:39:09.303Z,77.50
2019-05-17T23:44:09.198Z,77.00
2019-05-17T23:49:08.840Z,76.90
2019-05-17T23:54:08.495Z,76.70
2019-05-17T23:59:08.222Z,76.90
